N29BU EHAM-KPQI
Flight info
| Callsign | N29BU |
|---|---|
| Flight time | N/A |
| Altitude | 45000 |
| Route | BERGI5V BERGI L60 PENIL M144 BAGSO DCT DOGAL NATA TUDEP N530A MIILS |
| Aircraft | C700/M-SBDGHM1RWXY/LB2 |
Departure
| Time | N/A |
|---|---|
| Airport | Amsterdam Airport Schiphol (EHAM) |
Arrival
| Time | 2026-04-27 20:20 |
|---|---|
| Airport | Presque Isle International Airport (KPQI) |
| Time | Latitude | Longitude | Altitude | Speed | Heading |
|---|---|---|---|---|---|
| 2026-04-27 19:43 | 48.34462 | -63.11654 | 45362 ft | 460 kts | 243° |
| 2026-04-27 19:44 | 48.32980 | -63.15921 | 45369 ft | 459 kts | 243° |
| 2026-04-27 19:44 | 48.30048 | -63.24346 | 45369 ft | 456 kts | 243° |
| 2026-04-27 19:45 | 48.27103 | -63.32776 | 45369 ft | 454 kts | 243° |
| 2026-04-27 19:45 | 48.24155 | -63.41190 | 45372 ft | 457 kts | 243° |
| 2026-04-27 19:46 | 48.21191 | -63.49624 | 45373 ft | 461 kts | 243° |
| 2026-04-27 19:46 | 48.18192 | -63.58127 | 45368 ft | 460 kts | 243° |
| 2026-04-27 19:47 | 48.15196 | -63.66594 | 45362 ft | 458 kts | 243° |
| 2026-04-27 19:47 | 48.12231 | -63.74949 | 45362 ft | 456 kts | 243° |
| 2026-04-27 19:48 | 48.09250 | -63.83320 | 45365 ft | 455 kts | 243° |
| 2026-04-27 19:48 | 48.06257 | -63.91700 | 45367 ft | 457 kts | 243° |
| 2026-04-27 19:49 | 48.03751 | -63.98693 | 45369 ft | 459 kts | 242° |
| 2026-04-27 19:49 | 48.00720 | -64.07130 | 45372 ft | 461 kts | 242° |
| 2026-04-27 19:50 | 47.97695 | -64.15521 | 45366 ft | 461 kts | 243° |
| 2026-04-27 19:50 | 47.94654 | -64.23929 | 45363 ft | 459 kts | 242° |
| 2026-04-27 19:51 | 47.91616 | -64.32304 | 45362 ft | 458 kts | 242° |
| 2026-04-27 19:51 | 47.88579 | -64.40649 | 45359 ft | 457 kts | 242° |
| 2026-04-27 19:52 | 47.85562 | -64.48911 | 45360 ft | 456 kts | 242° |
| 2026-04-27 19:52 | 47.82523 | -64.57212 | 45357 ft | 455 kts | 242° |
| 2026-04-27 19:53 | 47.77953 | -64.69641 | 45361 ft | 460 kts | 242° |
| 2026-04-27 19:53 | 47.74860 | -64.78018 | 45362 ft | 462 kts | 242° |
| 2026-04-27 19:54 | 47.71771 | -64.86362 | 45352 ft | 459 kts | 242° |
| 2026-04-27 19:54 | 47.68692 | -64.94651 | 45345 ft | 457 kts | 242° |
| 2026-04-27 19:55 | 47.67164 | -64.98756 | 45090 ft | 460 kts | 242° |
| 2026-04-27 19:55 | 47.65612 | -65.02916 | 44470 ft | 459 kts | 242° |
| 2026-04-27 19:55 | 47.64075 | -65.07030 | 43864 ft | 453 kts | 242° |
| 2026-04-27 19:55 | 47.62557 | -65.11089 | 43275 ft | 446 kts | 242° |
| 2026-04-27 19:56 | 47.61062 | -65.15080 | 42693 ft | 440 kts | 242° |
| 2026-04-27 19:56 | 47.59586 | -65.19015 | 42119 ft | 435 kts | 242° |
| 2026-04-27 19:56 | 47.58121 | -65.22914 | 41551 ft | 433 kts | 241° |
| 2026-04-27 19:56 | 47.56654 | -65.26812 | 40983 ft | 434 kts | 241° |
| 2026-04-27 19:57 | 47.55177 | -65.30731 | 40412 ft | 438 kts | 241° |
| 2026-04-27 19:57 | 47.53686 | -65.34681 | 39835 ft | 442 kts | 241° |
| 2026-04-27 19:57 | 47.52184 | -65.38658 | 39254 ft | 443 kts | 241° |
| 2026-04-27 19:57 | 47.50680 | -65.42630 | 38611 ft | 441 kts | 240° |
| 2026-04-27 19:58 | 47.49190 | -65.46562 | 38032 ft | 436 kts | 240° |
| 2026-04-27 19:58 | 47.47708 | -65.50465 | 37459 ft | 436 kts | 240° |
| 2026-04-27 19:58 | 47.46216 | -65.54386 | 36890 ft | 439 kts | 240° |
| 2026-04-27 19:58 | 47.44712 | -65.58337 | 36308 ft | 442 kts | 240° |
| 2026-04-27 19:59 | 47.43199 | -65.62306 | 35723 ft | 445 kts | 240° |
| 2026-04-27 19:59 | 47.41682 | -65.66278 | 35129 ft | 444 kts | 240° |
| 2026-04-27 19:59 | 47.40165 | -65.70243 | 34541 ft | 443 kts | 240° |
| 2026-04-27 19:59 | 47.38650 | -65.74197 | 33917 ft | 442 kts | 240° |
| 2026-04-27 20:00 | 47.37136 | -65.78142 | 33333 ft | 443 kts | 240° |
| 2026-04-27 20:00 | 47.35612 | -65.82107 | 32745 ft | 446 kts | 240° |
| 2026-04-27 20:00 | 47.34076 | -65.86100 | 32158 ft | 451 kts | 240° |
| 2026-04-27 20:00 | 47.32523 | -65.90133 | 31561 ft | 453 kts | 240° |
| 2026-04-27 20:01 | 47.30962 | -65.94179 | 30959 ft | 456 kts | 240° |
| 2026-04-27 20:01 | 47.29386 | -65.98259 | 30331 ft | 459 kts | 240° |
| 2026-04-27 20:01 | 47.27808 | -66.02336 | 29703 ft | 455 kts | 240° |
| 2026-04-27 20:01 | 47.26253 | -66.06347 | 29103 ft | 448 kts | 241° |
| 2026-04-27 20:02 | 47.24712 | -66.10317 | 28523 ft | 444 kts | 241° |
| 2026-04-27 20:02 | 47.23183 | -66.14251 | 27935 ft | 442 kts | 241° |
| 2026-04-27 20:02 | 47.21659 | -66.18166 | 27349 ft | 440 kts | 241° |
| 2026-04-27 20:02 | 47.20137 | -66.22067 | 26771 ft | 439 kts | 241° |
| 2026-04-27 20:03 | 47.18622 | -66.25951 | 26180 ft | 434 kts | 241° |
| 2026-04-27 20:03 | 47.17130 | -66.29764 | 25614 ft | 428 kts | 241° |
| 2026-04-27 20:03 | 47.15654 | -66.33534 | 25053 ft | 424 kts | 241° |
| 2026-04-27 20:03 | 47.14188 | -66.37276 | 24498 ft | 422 kts | 241° |
| 2026-04-27 20:04 | 47.12724 | -66.41004 | 23940 ft | 421 kts | 241° |
| 2026-04-27 20:04 | 47.11263 | -66.44719 | 23340 ft | 417 kts | 241° |
| 2026-04-27 20:04 | 47.09820 | -66.48384 | 22792 ft | 412 kts | 241° |
| 2026-04-27 20:04 | 47.08388 | -66.52016 | 22245 ft | 410 kts | 241° |
| 2026-04-27 20:05 | 47.06980 | -66.55585 | 21706 ft | 409 kts | 242° |
| 2026-04-27 20:05 | 47.05553 | -66.59195 | 21171 ft | 409 kts | 242° |
| 2026-04-27 20:05 | 47.04129 | -66.62793 | 20635 ft | 407 kts | 242° |
| 2026-04-27 20:05 | 47.02712 | -66.66366 | 20097 ft | 404 kts | 242° |
| 2026-04-27 20:06 | 47.01307 | -66.69909 | 19571 ft | 401 kts | 242° |
| 2026-04-27 20:06 | 46.99906 | -66.73431 | 19043 ft | 399 kts | 242° |
| 2026-04-27 20:06 | 46.98510 | -66.76943 | 18504 ft | 398 kts | 243° |
| 2026-04-27 20:06 | 46.97124 | -66.80423 | 17951 ft | 394 kts | 242° |
| 2026-04-27 20:07 | 46.95750 | -66.83867 | 17298 ft | 391 kts | 242° |
| 2026-04-27 20:07 | 46.94379 | -66.87302 | 16622 ft | 386 kts | 242° |
| 2026-04-27 20:07 | 46.93041 | -66.90643 | 16103 ft | 377 kts | 242° |
| 2026-04-27 20:07 | 46.91737 | -66.93950 | 15581 ft | 374 kts | 244° |
| 2026-04-27 20:08 | 46.90822 | -66.97477 | 15072 ft | 369 kts | 256° |
| 2026-04-27 20:08 | 46.90259 | -67.01120 | 14592 ft | 366 kts | 261° |
| 2026-04-27 20:08 | 46.89735 | -67.04751 | 14100 ft | 364 kts | 259° |
| 2026-04-27 20:08 | 46.89051 | -67.08308 | 13597 ft | 362 kts | 254° |
| 2026-04-27 20:09 | 46.88253 | -67.11772 | 13121 ft | 357 kts | 253° |
| 2026-04-27 20:09 | 46.87526 | -67.15164 | 12657 ft | 339 kts | 255° |
| 2026-04-27 20:09 | 46.86900 | -67.18384 | 12221 ft | 320 kts | 256° |
| 2026-04-27 20:09 | 46.86293 | -67.21433 | 11810 ft | 305 kts | 255° |
| 2026-04-27 20:10 | 46.85691 | -67.24333 | 11415 ft | 292 kts | 255° |
| 2026-04-27 20:10 | 46.85108 | -67.27137 | 11034 ft | 285 kts | 255° |
| 2026-04-27 20:10 | 46.84540 | -67.29905 | 10665 ft | 285 kts | 255° |
| 2026-04-27 20:10 | 46.83973 | -67.32672 | 10290 ft | 287 kts | 255° |
| 2026-04-27 20:11 | 46.83394 | -67.35472 | 9889 ft | 286 kts | 255° |
| 2026-04-27 20:11 | 46.82821 | -67.38238 | 9507 ft | 283 kts | 254° |
| 2026-04-27 20:11 | 46.82253 | -67.40980 | 9137 ft | 281 kts | 254° |
| 2026-04-27 20:11 | 46.81690 | -67.43697 | 8769 ft | 279 kts | 254° |
| 2026-04-27 20:12 | 46.81129 | -67.46400 | 8393 ft | 278 kts | 255° |
| 2026-04-27 20:12 | 46.80757 | -67.48192 | 8150 ft | 278 kts | 255° |
| 2026-04-27 20:12 | 46.80004 | -67.51805 | 7660 ft | 277 kts | 254° |
| 2026-04-27 20:12 | 46.79432 | -67.54476 | 7296 ft | 276 kts | 251° |
| 2026-04-27 20:13 | 46.78650 | -67.57039 | 6944 ft | 275 kts | 245° |
| 2026-04-27 20:13 | 46.77730 | -67.59480 | 6576 ft | 275 kts | 239° |
| 2026-04-27 20:13 | 46.76652 | -67.61758 | 6301 ft | 271 kts | 234° |
| 2026-04-27 20:13 | 46.75553 | -67.63998 | 6047 ft | 273 kts | 236° |
| 2026-04-27 20:14 | 46.74496 | -67.66284 | 5791 ft | 271 kts | 237° |
| 2026-04-27 20:14 | 46.73462 | -67.68578 | 5547 ft | 269 kts | 237° |
| 2026-04-27 20:14 | 46.72428 | -67.70826 | 5420 ft | 267 kts | 236° |
| 2026-04-27 20:14 | 46.71385 | -67.73078 | 5303 ft | 269 kts | 236° |
| 2026-04-27 20:15 | 46.70334 | -67.75347 | 5170 ft | 271 kts | 236° |
| 2026-04-27 20:15 | 46.69297 | -67.77592 | 5066 ft | 269 kts | 236° |
| 2026-04-27 20:15 | 46.68248 | -67.79865 | 4826 ft | 272 kts | 236° |
| 2026-04-27 20:15 | 46.67196 | -67.82136 | 4487 ft | 269 kts | 236° |
| 2026-04-27 20:16 | 46.66157 | -67.84377 | 4135 ft | 266 kts | 236° |
| 2026-04-27 20:16 | 46.65129 | -67.86595 | 3788 ft | 262 kts | 236° |
| 2026-04-27 20:16 | 46.64125 | -67.88761 | 3444 ft | 254 kts | 236° |
| 2026-04-27 20:16 | 46.63149 | -67.90861 | 3106 ft | 247 kts | 235° |
| 2026-04-27 20:17 | 46.62214 | -67.92875 | 2782 ft | 233 kts | 236° |
| 2026-04-27 20:17 | 46.61533 | -67.94926 | 2468 ft | 221 kts | 254° |
| 2026-04-27 20:17 | 46.61366 | -67.97089 | 2189 ft | 211 kts | 272° |
| 2026-04-27 20:17 | 46.61509 | -67.98474 | 2009 ft | 206 kts | 284° |
| 2026-04-27 20:18 | 46.62323 | -68.00917 | 1654 ft | 198 kts | 307° |
| 2026-04-27 20:18 | 46.63290 | -68.02294 | 1388 ft | 192 kts | 324° |
| 2026-04-27 20:18 | 46.64421 | -68.03179 | 1161 ft | 177 kts | 340° |
| 2026-04-27 20:18 | 46.65560 | -68.03604 | 981 ft | 148 kts | 347° |
| 2026-04-27 20:19 | 46.66409 | -68.03939 | 839 ft | 117 kts | 345° |
| 2026-04-27 20:19 | 46.67207 | -68.04231 | 676 ft | 119 kts | 346° |
| 2026-04-27 20:19 | 46.68007 | -68.04521 | 518 ft | 119 kts | 347° |
| 2026-04-27 20:19 | 46.68749 | -68.04791 | 481 ft | 78 kts | 346° |
| 2026-04-27 20:20 | 46.69104 | -68.04923 | 487 ft | 44 kts | 344° |
| 2026-04-27 20:20 | 46.69367 | -68.05021 | 489 ft | 36 kts | 346° |
| 2026-04-27 20:20 | 46.69594 | -68.05106 | 496 ft | 31 kts | 346° |
| 2026-04-27 20:20 | 46.69683 | -68.05084 | 500 ft | 10 kts | 76° |
| 2026-04-27 20:21 | 46.69676 | -68.04993 | 502 ft | 10 kts | 97° |
| 2026-04-27 20:21 | 46.69668 | -68.04864 | 501 ft | 15 kts | 95° |
| 2026-04-27 20:21 | 46.69660 | -68.04778 | 500 ft | 0 kts | 98° |
| 2026-04-27 20:21 | 46.69633 | -68.04759 | 499 ft | 7 kts | 163° |
| 2026-04-27 20:22 | 46.69594 | -68.04733 | 492 ft | 3 kts | 93° |
| 2026-04-27 20:22 | 46.69600 | -68.04718 | 491 ft | 0 kts | 53° |